Time;durP1;ratioP1;P1;durP2;ratioP2;P2;SDS_P1;SDS_P2;PMS_P1;PMS_P2;Temp;Humidity;BMP_temperature;BMP_pressure;BME280_temperature;BME280_humidity;BME280_pressure;Samples;Min_cycle;Max_cycle;Signal;HPM_P1;HPM_P2
2023/05/24 00:00:05;;;;;;;7.80;6.70;;;;;;;10.31;98.40;97063.02;110231;1242;69257;-70
2023/05/24 00:02:56;;;;;;;8.20;6.40;;;;;;;10.25;100.00;97064.50;110122;1243;68580;-70
2023/05/24 00:05:29;;;;;;;6.70;5.90;;;;;;;10.20;100.00;97062.92;110218;1240;59736;-72
2023/05/24 00:07:59;;;;;;;7.40;6.60;;;;;;;10.18;100.00;97059.63;110221;1243;59627;-70
2023/05/24 00:10:29;;;;;;;10.00;7.50;;;;;;;10.15;100.00;97053.20;110191;1242;70432;-70
2023/05/24 00:12:59;;;;;;;7.60;6.20;;;;;;;10.15;100.00;97051.96;110219;1241;68488;-71
2023/05/24 00:15:29;;;;;;;7.20;6.30;;;;;;;10.14;100.00;97050.99;110177;1240;68520;-71
2023/05/24 00:17:59;;;;;;;7.70;6.20;;;;;;;10.13;100.00;97053.19;110156;1241;59738;-71
2023/05/24 00:20:30;;;;;;;8.60;6.20;;;;;;;10.11;100.00;97055.39;110145;1242;59699;-70
2023/05/24 00:23:02;;;;;;;8.20;6.20;;;;;;;10.11;100.00;97054.52;110165;1241;71328;-69
2023/05/24 00:25:32;;;;;;;6.50;5.80;;;;;;;10.11;100.00;97050.70;110195;1248;69274;-68
2023/05/24 00:28:04;;;;;;;7.30;5.50;;;;;;;10.13;100.00;97050.73;110191;1241;69280;-70
2023/05/24 00:30:36;;;;;;;6.60;5.30;;;;;;;10.15;100.00;97049.73;110157;1242;59624;-72
2023/05/24 00:33:10;;;;;;;5.70;4.50;;;;;;;10.17;100.00;97049.55;110141;1243;59680;-70
2023/05/24 00:35:41;;;;;;;6.60;5.60;;;;;;;10.20;100.00;97049.14;110190;1248;70505;-70
2023/05/24 00:38:12;;;;;;;7.40;6.00;;;;;;;10.23;100.00;97050.36;110127;1242;69608;-70
2023/05/24 00:40:43;;;;;;;6.50;5.70;;;;;;;10.23;100.00;97049.13;110209;1242;69291;-70
2023/05/24 00:43:14;;;;;;;7.60;6.00;;;;;;;10.26;100.00;97051.39;110171;1242;59696;-70
2023/05/24 00:45:45;;;;;;;6.70;5.50;;;;;;;10.27;100.00;97053.39;110170;1243;59681;-71
2023/05/24 00:48:18;;;;;;;7.70;5.70;;;;;;;10.23;100.00;97053.86;110192;1242;70642;-70
2023/05/24 00:50:51;;;;;;;7.30;6.00;;;;;;;10.18;100.00;97053.71;110136;1245;69298;-71
2023/05/24 00:53:22;;;;;;;6.20;4.60;;;;;;;10.12;100.00;97053.96;110192;1242;69603;-70
2023/05/24 00:55:53;;;;;;;;;;;;;;;10.06;100.00;97053.00;110166;1245;59750;-71
2023/05/24 00:58:29;;;;;;;7.60;4.90;;;;;;;10.00;100.00;97057.17;110147;1242;59627;-70
2023/05/24 01:01:02;;;;;;;7.30;5.40;;;;;;;9.93;100.00;97055.02;110162;1242;71227;-71
2023/05/24 01:03:34;;;;;;;7.90;5.60;;;;;;;9.88;100.00;97052.84;110132;1242;68310;-71
2023/05/24 01:06:06;;;;;;;7.20;5.80;;;;;;;9.83;100.00;97054.58;110153;1241;69650;-72
2023/05/24 01:09:01;;;;;;;9.30;6.50;;;;;;;9.78;100.00;97057.23;110164;1240;59708;-71
2023/05/24 01:11:57;;;;;;;7.90;6.50;;;;;;;9.71;100.00;97059.14;110125;1245;60143;-70
2023/05/24 01:14:53;;;;;;;8.00;6.70;;;;;;;9.64;100.00;97056.74;110167;1242;70775;-71
2023/05/24 01:17:33;;;;;;;7.70;6.10;;;;;;;9.59;100.00;97056.41;110156;1242;69277;-71
2023/05/24 01:20:12;;;;;;;6.40;4.90;;;;;;;9.55;100.00;97058.27;110152;1245;68810;-71
2023/05/24 01:23:22;;;;;;;6.20;5.60;;;;;;;9.52;100.00;97060.40;110184;1248;59669;-72
2023/05/24 01:26:17;;;;;;;7.50;5.30;;;;;;;9.51;100.00;97055.30;110162;1242;59677;-70
2023/05/24 01:28:48;;;;;;;6.70;5.70;;;;;;;9.49;100.00;97058.52;110156;1241;71288;-69
2023/05/24 01:31:20;;;;;;;6.20;4.80;;;;;;;9.48;100.00;97054.60;110164;1242;68474;-70
2023/05/24 01:33:51;;;;;;;6.10;5.00;;;;;;;9.47;100.00;97059.90;110162;1243;69302;-70
2023/05/24 01:36:22;;;;;;;5.70;4.80;;;;;;;9.46;100.00;97056.84;110136;1240;59706;-70
2023/05/24 01:38:53;;;;;;;6.70;5.70;;;;;;;9.44;100.00;97055.59;110194;1243;59678;-70
2023/05/24 01:41:37;;;;;;;7.20;5.60;;;;;;;9.42;100.00;97051.90;110193;1242;71544;-72
2023/05/24 01:44:35;;;;;;;7.10;6.20;;;;;;;9.42;100.00;97049.84;110170;1241;69476;-70
2023/05/24 01:47:48;;;;;;;6.60;5.20;;;;;;;9.40;100.00;97050.86;110182;1242;68522;-69
2023/05/24 01:50:30;;;;;;;6.10;5.20;;;;;;;9.38;100.00;97048.39;109916;1242;60070;-71
2023/05/24 01:53:08;;;;;;;7.80;5.60;;;;;;;9.36;100.00;97046.60;110157;1242;59659;-69
2023/05/24 01:55:42;;;;;;;7.40;5.20;;;;;;;9.36;100.00;97050.11;110197;1240;70635;-71
2023/05/24 01:58:15;;;;;;;6.40;5.40;;;;;;;9.34;100.00;97052.32;110196;1240;69437;-72
2023/05/24 02:00:49;;;;;;;6.60;5.30;;;;;;;9.33;100.00;97049.48;110197;1248;69420;-70
2023/05/24 02:03:21;;;;;;;6.50;5.10;;;;;;;9.31;100.00;97045.79;110182;1249;59722;-70
2023/05/24 02:05:52;;;;;;;6.50;5.60;;;;;;;9.29;100.00;97046.82;110189;1241;59702;-71
2023/05/24 02:08:22;;;;;;;6.00;5.40;;;;;;;9.28;100.00;97050.15;110222;1242;70452;-70
2023/05/24 02:10:54;;;;;;;7.10;6.00;;;;;;;9.25;100.00;97053.33;110230;1242;68684;-72
2023/05/24 02:13:25;;;;;;;7.50;6.50;;;;;;;9.16;100.00;97048.77;110164;1242;67732;-70
2023/05/24 02:15:58;;;;;;;8.00;6.00;;;;;;;9.05;100.00;97048.89;110231;1242;59815;-70
2023/05/24 02:18:33;;;;;;;8.80;6.70;;;;;;;8.99;100.00;97048.65;110216;1242;59642;-72
2023/05/24 02:21:03;;;;;;;8.00;6.10;;;;;;;8.94;100.00;97050.19;110189;1242;71377;-72
2023/05/24 02:23:35;;;;;;;8.60;6.40;;;;;;;8.92;100.00;97049.13;110168;1242;69152;-72
2023/05/24 02:26:10;;;;;;;8.30;5.70;;;;;;;8.91;100.00;97044.66;110173;1243;69288;-71
2023/05/24 02:28:41;;;;;;;7.70;6.00;;;;;;;8.90;100.00;97046.48;110188;1242;59673;-71
2023/05/24 02:31:14;;;;;;;7.10;5.30;;;;;;;8.89;100.00;97047.05;110161;1241;59740;-70
2023/05/24 02:33:49;;;;;;;7.20;6.20;;;;;;;8.88;100.00;97048.02;110149;1242;71519;-71
2023/05/24 02:36:22;;;;;;;7.10;5.90;;;;;;;8.87;100.00;97046.20;110220;1247;68289;-71
2023/05/24 02:38:55;;;;;;;7.40;5.90;;;;;;;8.84;100.00;97045.19;110212;1242;69041;-71
2023/05/24 02:41:25;;;;;;;7.50;5.90;;;;;;;8.81;100.00;97046.46;110209;1242;59740;-71
2023/05/24 02:43:57;;;;;;;6.70;5.60;;;;;;;8.78;100.00;97044.08;110205;1242;59687;-71
2023/05/24 02:46:27;;;;;;;7.60;5.70;;;;;;;8.74;100.00;97044.17;110165;1242;71443;-71
2023/05/24 02:48:57;;;;;;;7.00;5.10;;;;;;;8.73;100.00;97043.87;110243;1240;68327;-71
2023/05/24 02:51:28;;;;;;;7.00;5.10;;;;;;;8.74;100.00;97046.79;110279;1249;69139;-72
2023/05/24 02:53:58;;;;;;;5.60;5.00;;;;;;;8.76;100.00;97047.52;110214;1241;59693;-69
2023/05/24 02:56:30;;;;;;;6.50;5.20;;;;;;;8.80;100.00;97052.78;110210;1244;59713;-71
2023/05/24 02:58:59;;;;;;;6.40;5.50;;;;;;;8.81;100.00;97055.15;110243;1241;70967;-71
2023/05/24 03:01:32;;;;;;;7.30;5.80;;;;;;;8.81;100.00;97053.88;110168;1240;69373;-71
2023/05/24 03:04:03;;;;;;;8.30;5.80;;;;;;;8.83;100.00;97054.52;110326;1241;68694;-72
2023/05/24 03:06:33;;;;;;;6.20;5.50;;;;;;;8.82;100.00;97055.02;110228;1242;59724;-72
2023/05/24 03:09:04;;;;;;;8.60;5.90;;;;;;;8.81;100.00;97054.75;110181;1243;59720;-72
2023/05/24 03:11:35;;;;;;;7.80;6.20;;;;;;;8.80;100.00;97054.34;110207;1243;71403;-72
2023/05/24 03:14:08;;;;;;;6.60;5.30;;;;;;;8.80;100.00;97054.52;110189;1244;69078;-72
2023/05/24 03:16:41;;;;;;;6.40;5.20;;;;;;;8.83;100.00;97050.10;110159;1240;69237;-72
2023/05/24 03:19:11;;;;;;;6.10;4.80;;;;;;;8.88;100.00;97051.48;110200;1242;59718;-73
2023/05/24 03:21:44;;;;;;;6.30;5.00;;;;;;;8.93;100.00;97049.23;110191;1244;59789;-71
2023/05/24 03:24:13;;;;;;;6.80;5.40;;;;;;;8.98;100.00;97052.36;110253;1242;71237;-71
2023/05/24 03:26:44;;;;;;;5.30;4.10;;;;;;;9.02;100.00;97055.33;110156;1244;69100;-71
2023/05/24 03:29:15;;;;;;;6.30;5.30;;;;;;;9.07;100.00;97063.88;110138;1245;69251;-72
2023/05/24 03:31:45;;;;;;;8.90;7.10;;;;;;;9.12;100.00;97073.92;110206;1240;60069;-73
2023/05/24 03:34:17;;;;;;;8.60;7.50;;;;;;;9.15;100.00;97078.05;110228;1242;59729;-71
2023/05/24 03:36:46;;;;;;;7.40;6.60;;;;;;;9.17;100.00;97080.32;110270;1242;71981;-71
2023/05/24 03:39:17;;;;;;;7.30;5.90;;;;;;;9.16;100.00;97076.73;110206;1244;69231;-70
2023/05/24 03:41:55;;;;;;;9.30;7.00;;;;;;;9.12;100.00;97079.50;110171;1243;68893;-71
2023/05/24 03:44:25;;;;;;;7.90;6.90;;;;;;;9.06;100.00;97085.11;110146;1245;59769;-71
2023/05/24 03:46:54;;;;;;;9.10;6.60;;;;;;;9.09;100.00;97084.75;110157;1242;59689;-71
2023/05/24 03:49:25;;;;;;;8.50;6.80;;;;;;;9.13;100.00;97079.72;110223;1242;70417;-71
2023/05/24 03:51:56;;;;;;;10.00;6.60;;;;;;;9.23;100.00;97078.05;110191;1242;68830;-72
2023/05/24 03:54:26;;;;;;;10.40;7.50;;;;;;;9.25;100.00;97081.67;110207;1248;69248;-71
2023/05/24 03:56:55;;;;;;;7.90;6.10;;;;;;;9.26;100.00;97084.96;110113;1246;59750;-71
2023/05/24 03:59:25;;;;;;;9.00;7.30;;;;;;;9.29;100.00;97086.98;110159;1244;59667;-71
2023/05/24 04:01:55;;;;;;;9.10;7.00;;;;;;;9.37;100.00;97085.37;110150;1242;71973;-71
2023/05/24 04:04:26;;;;;;;7.90;6.30;;;;;;;9.46;100.00;97084.65;110127;1244;69404;-71
2023/05/24 04:06:56;;;;;;;7.70;5.40;;;;;;;9.58;100.00;97092.28;110162;1242;69322;-71
2023/05/24 04:09:26;;;;;;;8.10;6.00;;;;;;;9.69;100.00;97094.44;110241;1241;59738;-71
2023/05/24 04:11:55;;;;;;;7.20;5.90;;;;;;;9.78;100.00;97087.51;110132;1243;59662;-72
2023/05/24 04:14:24;;;;;;;7.30;6.60;;;;;;;9.91;100.00;97086.36;110157;1245;71340;-71
2023/05/24 04:16:54;;;;;;;6.70;6.00;;;;;;;10.08;100.00;97089.45;110134;1245;69143;-71
2023/05/24 04:19:23;;;;;;;7.50;6.50;;;;;;;10.27;100.00;97090.66;110201;1242;69855;-69
2023/05/24 04:21:53;;;;;;;9.00;6.80;;;;;;;10.47;100.00;97089.79;110220;1241;59758;-71
2023/05/24 04:24:22;;;;;;;10.30;7.80;;;;;;;10.65;100.00;97093.41;110252;1240;59750;-70
2023/05/24 04:26:51;;;;;;;8.80;6.60;;;;;;;10.82;100.00;97092.29;110200;1242;71440;-70
2023/05/24 04:29:25;;;;;;;11.40;7.00;;;;;;;10.99;100.00;97088.88;110211;1241;69318;-70
2023/05/24 04:31:55;;;;;;;8.60;7.00;;;;;;;11.14;100.00;97092.55;110177;1242;69265;-70
2023/05/24 04:34:28;;;;;;;10.40;7.50;;;;;;;11.26;100.00;97096.48;110149;1242;59740;-72
2023/05/24 04:36:58;;;;;;;8.90;7.40;;;;;;;11.40;100.00;97094.79;110212;1242;59745;-70
2023/05/24 04:39:30;;;;;;;7.70;6.60;;;;;;;11.56;100.00;97095.59;110175;1240;71972;-71
2023/05/24 04:42:01;;;;;;;8.90;7.80;;;;;;;11.72;99.19;97090.08;110146;1247;69273;-71
2023/05/24 04:44:31;;;;;;;9.10;7.60;;;;;;;11.87;99.08;97090.45;110158;1245;69301;-72
2023/05/24 04:47:02;;;;;;;8.90;8.00;;;;;;;12.01;99.98;97096.80;110235;1242;59689;-72
2023/05/24 04:49:33;;;;;;;8.90;6.80;;;;;;;12.17;98.88;97096.35;110229;1242;60121;-70
2023/05/24 04:52:03;;;;;;;8.30;6.80;;;;;;;12.33;98.07;97098.11;110185;1242;71953;-71
2023/05/24 04:54:34;;;;;;;7.90;6.50;;;;;;;12.48;96.53;97099.94;110177;1240;69150;-72
2023/05/24 04:57:04;;;;;;;9.70;6.90;;;;;;;12.62;94.96;97102.80;110216;1241;69281;-71
2023/05/24 04:59:34;;;;;;;;;;;;;;;12.76;94.78;97105.58;110177;1242;59682;-70
2023/05/24 05:02:04;;;;;;;6.20;5.50;;;;;;;12.96;94.40;97106.12;110187;1241;59714;-71
2023/05/24 05:04:33;;;;;;;;;;;;;;;13.23;93.20;97107.28;110205;1242;71061;-71
2023/05/24 05:07:03;;;;;;;7.60;5.90;;;;;;;13.61;91.73;97107.05;110136;1241;69245;-71
2023/05/24 05:09:33;;;;;;;6.30;5.40;;;;;;;14.09;95.96;97107.47;110227;1242;69898;-71
2023/05/24 05:12:02;;;;;;;5.80;5.20;;;;;;;14.63;93.31;97108.21;110192;1242;59811;-71
2023/05/24 05:14:31;;;;;;;6.50;5.80;;;;;;;15.19;93.65;97106.05;110213;1242;59682;-71
2023/05/24 05:17:00;;;;;;;;;;;;;;;15.70;86.45;97110.40;110209;1242;71355;-71
2023/05/24 05:19:30;;;;;;;8.40;5.20;;;;;;;16.14;86.85;97112.77;110239;1244;69634;-71
2023/05/24 05:22:00;;;;;;;8.90;6.70;;;;;;;16.56;81.73;97111.43;110177;1242;69279;-71
2023/05/24 05:24:30;;;;;;;6.10;5.10;;;;;;;16.82;77.30;97107.99;110216;1242;59698;-71
2023/05/24 05:27:00;;;;;;;6.80;6.10;;;;;;;17.19;75.29;97109.80;110148;1242;59664;-71
2023/05/24 05:29:29;;;;;;;6.40;5.80;;;;;;;17.43;72.55;97108.58;110184;1242;71479;-71
2023/05/24 05:31:58;;;;;;;7.00;5.40;;;;;;;17.61;68.42;97110.98;110187;1242;69831;-72
2023/05/24 05:34:27;;;;;;;9.10;6.10;;;;;;;17.63;66.62;97114.23;110087;1245;69725;-72
2023/05/24 05:36:57;;;;;;;6.50;5.80;;;;;;;17.53;67.87;97114.68;110195;1242;59730;-70
2023/05/24 05:39:26;;;;;;;6.20;5.50;;;;;;;17.47;68.84;97119.27;110201;1249;59694;-72
2023/05/24 05:41:55;;;;;;;7.30;5.60;;;;;;;17.29;70.14;97124.42;110209;1241;70468;-71
2023/05/24 05:44:25;;;;;;;6.20;4.90;;;;;;;17.31;70.24;97125.20;110229;1241;69251;-70
2023/05/24 05:46:54;;;;;;;5.90;4.90;;;;;;;17.42;69.63;97124.66;110212;1242;69251;-71
2023/05/24 05:49:24;;;;;;;;;;;;;;;17.34;69.36;97126.14;110247;1242;59762;-71
2023/05/24 05:51:54;;;;;;;6.70;5.90;;;;;;;17.10;69.71;97131.59;110219;1242;59652;-71
2023/05/24 05:54:23;;;;;;;8.50;5.90;;;;;;;17.15;69.82;97131.14;110250;1242;70361;-71
2023/05/24 05:56:52;;;;;;;5.90;5.20;;;;;;;17.09;69.72;97133.70;110265;1242;69559;-72
2023/05/24 05:59:21;;;;;;;6.50;4.70;;;;;;;17.26;69.69;97130.30;110239;1242;69830;-71
2023/05/24 06:01:50;;;;;;;6.10;5.30;;;;;;;17.46;69.23;97132.48;110228;1242;59689;-71
2023/05/24 06:04:19;;;;;;;5.50;4.70;;;;;;;17.75;69.76;97132.90;110242;1242;59689;-71
2023/05/24 06:06:49;;;;;;;7.80;5.40;;;;;;;18.21;69.72;97131.89;110199;1242;70979;-72
2023/05/24 06:09:18;;;;;;;6.00;4.80;;;;;;;18.60;65.68;97134.66;110252;1242;69087;-71
2023/05/24 06:11:47;;;;;;;5.80;4.60;;;;;;;18.98;65.85;97134.41;110247;1242;69845;-71
2023/05/24 06:14:18;;;;;;;6.30;4.80;;;;;;;19.26;63.50;97132.26;110230;1241;59640;-68
2023/05/24 06:16:47;;;;;;;8.30;5.20;;;;;;;19.30;61.42;97134.10;110243;1241;59740;-69
2023/05/24 06:19:17;;;;;;;5.30;4.80;;;;;;;19.61;61.63;97135.20;110245;1242;71525;-69
2023/05/24 06:21:48;;;;;;;7.10;4.80;;;;;;;20.04;60.34;97136.81;110206;1249;70156;-69
2023/05/24 06:24:19;;;;;;;5.70;4.40;;;;;;;20.49;60.25;97132.27;110171;1242;69514;-69
2023/05/24 06:26:50;;;;;;;7.50;5.30;;;;;;;20.90;58.76;97130.64;110172;1244;59655;-67
2023/05/24 06:29:20;;;;;;;6.10;5.00;;;;;;;21.16;57.20;97134.91;110198;1242;60138;-70
2023/05/24 06:31:51;;;;;;;8.00;4.40;;;;;;;21.27;55.71;97134.55;110212;1242;71986;-70
2023/05/24 06:34:20;;;;;;;6.00;4.50;;;;;;;21.33;56.03;97137.48;110262;1249;69754;-68
2023/05/24 06:36:50;;;;;;;;;;;;;;;21.48;55.32;97136.28;110203;1242;69169;-70
2023/05/24 06:39:19;;;;;;;;;;;;;;;21.51;54.89;97130.02;110229;1242;59627;-70
2023/05/24 06:41:50;;;;;;;5.90;4.90;;;;;;;21.42;55.34;97128.80;110195;1241;59753;-70
2023/05/24 06:44:30;;;;;;;5.90;4.70;;;;;;;21.52;54.83;97124.95;110217;1243;72076;-69
2023/05/24 06:47:00;;;;;;;5.50;4.50;;;;;;;21.60;55.07;97124.54;110267;1241;68822;-70
2023/05/24 06:49:30;;;;;;;8.20;5.10;;;;;;;21.82;54.53;97124.09;110189;1242;68549;-70
2023/05/24 06:51:58;;;;;;;6.50;4.10;;;;;;;22.00;54.38;97126.46;110213;1242;59788;-69
2023/05/24 06:54:28;;;;;;;5.00;4.10;;;;;;;22.13;53.44;97128.78;110239;1243;59821;-68
2023/05/24 06:56:57;;;;;;;6.00;4.40;;;;;;;22.32;53.17;97128.54;110254;1241;71942;-70
2023/05/24 06:59:26;;;;;;;5.10;3.80;;;;;;;22.38;51.85;97129.86;110198;1241;69441;-70
2023/05/24 07:01:56;;;;;;;3.80;3.40;;;;;;;22.73;52.42;97127.62;110136;1241;68503;-71
2023/05/24 07:04:30;;;;;;;5.40;3.90;;;;;;;23.12;51.57;97126.98;110170;1242;59698;-70
2023/05/24 07:06:59;;;;;;;6.80;3.90;;;;;;;23.25;50.44;97123.91;110228;1242;59736;-70
2023/05/24 07:09:29;;;;;;;4.50;3.60;;;;;;;23.40;49.34;97122.54;110250;1240;71339;-70
2023/05/24 07:11:58;;;;;;;6.50;4.00;;;;;;;23.74;49.18;97126.12;110255;1242;68714;-70
2023/05/24 07:14:27;;;;;;;;;;;;;;;24.06;47.99;97126.02;110213;1241;69868;-67
2023/05/24 07:16:58;;;;;;;5.00;4.00;;;;;;;24.04;47.54;97128.23;110219;1241;59686;-70
2023/05/24 07:19:28;;;;;;;5.60;4.60;;;;;;;23.97;47.60;97123.43;110241;1241;59728;-69
2023/05/24 07:21:57;;;;;;;5.80;3.90;;;;;;;24.05;47.98;97125.98;110223;1240;71367;-68
2023/05/24 07:24:26;;;;;;;7.90;4.80;;;;;;;24.30;47.41;97124.00;110243;1241;69860;-69
2023/05/24 07:26:56;;;;;;;6.50;4.60;;;;;;;24.50;46.65;97126.20;110195;1248;69709;-68
2023/05/24 07:29:25;;;;;;;4.70;4.10;;;;;;;24.38;47.04;97126.92;110187;1242;59633;-69
2023/05/24 07:31:57;;;;;;;5.80;4.80;;;;;;;24.51;46.49;97131.45;110211;1242;59770;-69
2023/05/24 07:34:28;;;;;;;7.00;4.40;;;;;;;24.56;45.56;97132.10;110237;1242;71801;-70
2023/05/24 07:36:59;;;;;;;6.20;4.60;;;;;;;24.43;45.47;97130.52;110191;1240;69653;-69
2023/05/24 07:39:30;;;;;;;7.90;4.40;;;;;;;24.20;45.90;97128.95;110248;1243;69243;-68
2023/05/24 07:41:59;;;;;;;5.80;4.20;;;;;;;24.07;46.44;97132.24;110238;1242;59678;-68
2023/05/24 07:44:29;;;;;;;5.30;3.90;;;;;;;24.22;46.42;97130.69;110230;1242;59682;-68
2023/05/24 07:46:58;;;;;;;6.00;4.40;;;;;;;24.20;46.17;97130.89;110257;1242;70749;-69
2023/05/24 07:49:27;;;;;;;;;;;;;;;24.28;46.15;97129.79;110293;1241;70185;-70
2023/05/24 07:51:58;;;;;;;5.60;4.70;;;;;;;24.33;45.47;97128.25;110243;1242;69255;-70
2023/05/24 07:54:28;;;;;;;6.90;4.70;;;;;;;24.15;45.91;97131.50;110207;1242;59756;-68
2023/05/24 07:56:58;;;;;;;8.80;5.10;;;;;;;24.40;45.45;97129.89;110205;1242;59796;-68
2023/05/24 07:59:26;;;;;;;5.30;3.90;;;;;;;24.81;45.09;97131.45;110174;1242;71980;-70
2023/05/24 08:02:00;;;;;;;5.30;4.00;;;;;;;25.25;44.25;97127.59;110216;1242;69773;-69
2023/05/24 08:04:29;;;;;;;5.90;4.20;;;;;;;25.51;43.60;97127.62;110181;1242;68596;-69
2023/05/24 08:07:01;;;;;;;9.70;4.60;;;;;;;25.87;41.10;97122.92;110190;1242;59730;-68
2023/05/24 08:09:35;;;;;;;4.10;3.60;;;;;;;26.00;40.75;97122.52;110173;1242;59760;-71
2023/05/24 08:12:05;;;;;;;6.70;4.40;;;;;;;26.23;41.22;97126.05;110182;1242;71424;-69
2023/05/24 08:14:35;;;;;;;4.40;4.00;;;;;;;26.23;40.72;97125.61;110197;1242;70363;-69
2023/05/24 08:17:04;;;;;;;4.70;4.00;;;;;;;26.25;41.38;97121.67;110194;1241;69727;-68
2023/05/24 08:19:34;;;;;;;4.50;4.10;;;;;;;26.33;40.26;97116.50;110175;1241;59705;-68
2023/05/24 08:22:03;;;;;;;4.70;3.80;;;;;;;26.37;40.39;97116.15;110239;1242;59700;-70
2023/05/24 08:24:32;;;;;;;5.20;4.10;;;;;;;26.40;40.99;97115.71;110200;1242;70566;-68
2023/05/24 08:27:03;;;;;;;5.70;3.80;;;;;;;26.71;39.90;97114.39;110238;1242;68320;-69
2023/05/24 08:29:34;;;;;;;5.60;4.30;;;;;;;26.92;39.35;97113.80;110175;1242;68922;-68
2023/05/24 08:32:08;;;;;;;4.90;4.30;;;;;;;27.11;38.81;97118.63;110172;1240;59675;-70
2023/05/24 08:34:38;;;;;;;4.70;4.10;;;;;;;27.04;38.22;97119.91;110200;1242;59747;-70
2023/05/24 08:37:08;;;;;;;5.70;3.70;;;;;;;26.64;38.27;97121.79;110202;1241;71357;-70
2023/05/24 08:39:37;;;;;;;5.50;4.20;;;;;;;26.56;38.37;97119.06;110148;1240;69242;-70
2023/05/24 08:42:06;;;;;;;4.30;3.90;;;;;;;26.64;39.01;97115.52;110187;1240;69778;-69
2023/05/24 08:44:44;;;;;;;4.70;4.20;;;;;;;26.84;38.72;97119.95;110117;1242;59699;-69
2023/05/24 08:47:14;;;;;;;5.10;4.20;;;;;;;26.84;38.47;97116.23;110188;1242;59674;-69
2023/05/24 08:49:44;;;;;;;5.40;3.90;;;;;;;27.06;37.57;97118.56;110212;1243;71438;-69
2023/05/24 08:52:14;;;;;;;5.20;4.10;;;;;;;27.27;37.71;97112.33;110195;1242;69063;-69
2023/05/24 08:54:43;;;;;;;4.80;3.90;;;;;;;27.56;37.73;97111.64;110176;1242;69844;-70
2023/05/24 08:57:14;;;;;;;4.70;4.20;;;;;;;27.80;37.53;97106.63;110225;1241;59741;-69
2023/05/24 08:59:43;;;;;;;5.30;4.70;;;;;;;27.98;37.60;97108.64;110263;1242;59689;-70
2023/05/24 09:02:14;;;;;;;4.00;3.60;;;;;;;27.78;36.80;97108.95;110199;1240;72424;-70
2023/05/24 09:04:47;;;;;;;4.80;3.50;;;;;;;27.52;37.20;97106.27;110159;1241;69279;-71
2023/05/24 09:07:18;;;;;;;6.40;4.00;;;;;;;28.24;37.64;97109.41;110162;1242;69601;-71
2023/05/24 09:09:55;;;;;;;6.70;4.40;;;;;;;28.44;36.68;97109.39;110229;1242;60115;-69
2023/05/24 09:12:29;;;;;;;5.50;3.70;;;;;;;28.68;35.83;97111.09;110255;1241;59713;-70
2023/05/24 09:15:07;;;;;;;5.00;4.30;;;;;;;28.40;35.91;97106.23;110233;1242;71980;-70
2023/05/24 09:17:37;;;;;;;6.00;4.20;;;;;;;28.52;35.48;97108.88;110218;1241;69854;-69
2023/05/24 09:20:09;;;;;;;5.80;3.70;;;;;;;27.78;36.11;97105.45;110209;1242;70029;-70
2023/05/24 09:22:41;;;;;;;4.80;4.10;;;;;;;27.86;37.20;97104.55;110262;1242;59811;-67
2023/05/24 09:25:13;;;;;;;6.30;4.50;;;;;;;28.21;36.21;97102.48;110243;1242;59742;-69
2023/05/24 09:27:49;;;;;;;5.50;4.50;;;;;;;28.06;36.30;97103.69;110204;1242;71974;-69
2023/05/24 09:30:18;;;;;;;6.90;4.00;;;;;;;28.04;36.22;97095.41;110213;1242;69091;-70
2023/05/24 09:32:58;;;;;;;5.00;3.70;;;;;;;28.06;36.16;97095.80;110241;1242;68350;-70
2023/05/24 09:35:28;;;;;;;4.50;3.70;;;;;;;27.61;36.69;97090.34;110214;1241;59740;-71
2023/05/24 09:38:00;;;;;;;11.30;4.20;;;;;;;27.39;37.09;97089.60;110242;1242;60071;-70
2023/05/24 09:40:30;;;;;;;4.40;3.80;;;;;;;28.04;34.65;97090.27;110214;1242;70813;-70
2023/05/24 09:43:07;;;;;;;6.40;3.80;;;;;;;27.99;35.43;97091.64;110206;1241;69213;-70
2023/05/24 09:45:48;;;;;;;4.80;3.50;;;;;;;28.37;34.81;97090.02;110247;1242;69848;-69
2023/05/24 09:48:17;;;;;;;4.30;3.50;;;;;;;28.60;34.93;97090.41;110228;1242;59749;-70
2023/05/24 09:51:00;;;;;;;;;;;;;;;28.70;35.54;97087.73;110208;1243;59733;-71
2023/05/24 09:53:29;;;;;;;5.30;3.60;;;;;;;29.01;34.82;97089.13;110261;1240;71976;-69
2023/05/24 09:56:00;;;;;;;4.50;4.10;;;;;;;29.05;34.23;97088.04;110195;1240;68696;-70
2023/05/24 09:58:33;;;;;;;7.70;4.10;;;;;;;29.13;34.14;97088.64;110183;1242;69717;-69
2023/05/24 10:01:07;;;;;;;4.80;4.10;;;;;;;28.86;34.37;97088.02;110205;1241;59718;-69
2023/05/24 10:03:36;;;;;;;4.60;3.90;;;;;;;28.77;34.01;97084.61;110283;1240;59710;-69
2023/05/24 10:42:06;;;;;;;3.30;2.60;;;;;;;28.57;29.77;97072.19;107031;1272;612938;-69
2023/05/24 10:44:37;;;;;;;3.90;2.80;;;;;;;28.92;27.84;97066.77;108884;1258;229570;-68
2023/05/24 10:47:09;;;;;;;3.80;3.00;;;;;;;29.04;28.36;97063.42;109135;1256;57687;-69
2023/05/24 10:49:51;;;;;;;4.30;2.80;;;;;;;29.24;28.23;97063.24;109120;1258;68812;-69
2023/05/24 10:52:19;;;;;;;5.00;3.20;;;;;;;29.64;28.60;97060.06;109037;1258;69090;-69
2023/05/24 10:55:13;;;;;;;4.10;2.70;;;;;;;29.91;28.16;97052.63;108976;1254;68427;-67
2023/05/24 10:57:41;;;;;;;4.40;2.70;;;;;;;30.17;28.94;97052.32;109003;1259;57717;-69
2023/05/24 11:00:24;;;;;;;3.70;2.70;;;;;;;30.57;28.73;97051.48;109056;1261;57685;-70
2023/05/24 11:03:09;;;;;;;5.40;3.50;;;;;;;30.24;27.73;97053.38;109139;1255;68435;-67
2023/05/24 11:05:49;;;;;;;4.70;3.40;;;;;;;30.09;27.55;97053.67;109131;1258;69675;-68
2023/05/24 11:08:28;;;;;;;4.50;3.40;;;;;;;29.78;28.12;97052.66;109044;1254;69342;-68
2023/05/24 11:11:08;;;;;;;4.10;3.40;;;;;;;29.63;27.76;97054.81;109030;1255;58091;-70
2023/05/24 11:13:56;;;;;;;4.80;3.50;;;;;;;29.35;27.72;97057.88;109009;1258;58058;-68
2023/05/24 11:16:38;;;;;;;3.90;3.40;;;;;;;28.80;28.32;97062.02;109027;1255;70619;-68
2023/05/24 11:19:20;;;;;;;5.40;3.60;;;;;;;28.52;27.98;97061.23;109020;1254;69656;-69
2023/05/24 11:21:50;;;;;;;3.70;3.30;;;;;;;28.84;28.04;97062.65;109228;1255;70081;-70
2023/05/24 11:24:20;;;;;;;4.70;3.30;;;;;;;28.90;28.29;97067.25;110070;1245;58137;-69
2023/05/24 11:26:49;;;;;;;3.60;2.90;;;;;;;28.89;28.60;97064.33;110171;1244;58090;-69
2023/05/24 11:29:19;;;;;;;4.10;3.10;;;;;;;29.17;28.77;97057.92;110129;1244;70226;-65
2023/05/24 11:32:01;;;;;;;4.20;3.20;;;;;;;29.51;28.03;97057.17;110099;1245;68899;-70
2023/05/24 11:34:30;;;;;;;3.40;2.90;;;;;;;29.67;27.15;97056.34;110088;1243;70144;-69
2023/05/24 11:36:59;;;;;;;4.20;3.20;;;;;;;29.69;26.32;97054.92;110126;1247;58090;-69
2023/05/24 11:39:35;;;;;;;4.30;3.10;;;;;;;29.33;25.39;97059.08;110148;1244;58083;-69
2023/05/24 11:42:06;;;;;;;3.10;2.50;;;;;;;29.04;26.42;97060.67;110142;1245;68914;-69
2023/05/24 11:44:39;;;;;;;4.10;2.90;;;;;;;28.80;26.53;97061.44;110102;1245;69556;-69
2023/05/24 11:47:07;;;;;;;3.40;2.50;;;;;;;28.68;25.93;97059.88;110097;1244;68739;-68
2023/05/24 11:49:35;;;;;;;6.10;3.30;;;;;;;28.64;26.56;97059.26;110073;1243;58183;-68
2023/05/24 11:52:02;;;;;;;4.90;3.10;;;;;;;28.68;27.08;97061.45;109862;1246;58105;-69
2023/05/24 11:54:33;;;;;;;;;;;;;;;28.68;26.77;97059.02;110095;1245;70551;-69
2023/05/24 11:57:01;;;;;;;3.60;3.00;;;;;;;28.73;26.71;97056.33;110081;1245;69516;-67
2023/05/24 11:59:30;;;;;;;4.10;3.20;;;;;;;28.59;26.47;97059.09;110084;1246;69969;-68
2023/05/24 12:02:05;;;;;;;4.40;3.00;;;;;;;28.50;26.19;97056.04;110082;1244;58077;-69
2023/05/24 12:04:33;;;;;;;3.00;2.60;;;;;;;28.54;26.86;97057.31;109780;1248;58175;-68
2023/05/24 12:07:02;;;;;;;4.20;3.00;;;;;;;28.70;27.54;97059.88;110078;1245;69685;-69
2023/05/24 12:09:29;;;;;;;4.40;3.20;;;;;;;28.57;28.08;97058.02;110038;1245;69728;-68
2023/05/24 12:11:57;;;;;;;3.40;3.10;;;;;;;28.82;28.21;97057.55;110026;1245;69871;-69
2023/05/24 12:14:31;;;;;;;5.60;3.40;;;;;;;28.75;28.55;97054.28;110123;1244;58060;-69
2023/05/24 12:17:00;;;;;;;3.30;2.80;;;;;;;28.66;28.91;97053.87;110075;1246;58031;-68
2023/05/24 12:19:35;;;;;;;2.80;2.50;;;;;;;28.87;28.22;97044.38;109747;1245;70287;-68
2023/05/24 12:22:05;;;;;;;5.50;3.50;;;;;;;28.81;27.36;97045.44;109889;1245;69712;-68
2023/05/24 12:24:34;;;;;;;3.30;2.60;;;;;;;28.59;27.64;97046.14;110034;1244;70024;-68